This is the latest recevied weather packets stored in our database for station/object CA3EVY-3. If no packets are shown the sender has not sent any weather packets the latest 10 day(s).
| Time | Temp. | Humidity | Pressure | Rain* | Wind** | Luminosity | Snow |
|---|---|---|---|---|---|---|---|
| 1778265904 | 19.44° C | 41% | 919.1 hPa | - | - | - | - |
| 1778265003 | 18.89° C | 44% | 919.4 hPa | - | - | - | - |
| 1778264103 | 18.89° C | 44% | 919.5 hPa | - | - | - | - |
| 1778263204 | 18.33° C | 47% | 919.6 hPa | - | - | - | - |
| 1778262303 | 17.78° C | 47% | 919.7 hPa | - | - | - | - |
| 1778261403 | 17.22° C | 51% | 919.8 hPa | - | - | - | - |
| 1778260504 | 17.22° C | 51% | 920 hPa | - | - | - | - |
| 1778259604 | 16.11° C | 53% | 919.9 hPa | - | - | - | - |
| 1778258704 | 16.11° C | 53% | 920.3 hPa | - | - | - | - |
| 1778257804 | 15° C | 57% | 920.6 hPa | - | - | - | - |
| 1778256904 | 14.44° C | 57% | 920.6 hPa | - | - | - | - |
| 1778256004 | 13.89° C | 60% | 920.7 hPa | - | - | - | - |
| 1778255104 | 13.33° C | 60% | 920.6 hPa | - | - | - | - |
| 1778254204 | 13.33° C | 62% | 920.7 hPa | - | - | - | - |
| 1778253304 | 12.78° C | 62% | 920.9 hPa | - | - | - | - |
| 1778252404 | 12.22° C | 63% | 921 hPa | - | - | - | - |
| 1778251504 | 12.22° C | 63% | 921.1 hPa | - | - | - | - |
| 1778250603 | 11.67° C | 61% | 921.3 hPa | - | - | - | - |
| 1778249703 | 11.67° C | 61% | 921.5 hPa | - | - | - | - |
| 1778248804 | 11.11° C | 63% | 921.4 hPa | - | - | - | - |
| 1778247903 | 11.11° C | 63% | 921.4 hPa | - | - | - | - |
| 1778247004 | 10° C | 65% | 921.5 hPa | - | - | - | - |
| 1778246103 | 10° C | 65% | 921.7 hPa | - | - | - | - |
| 1778245204 | 10° C | 65% | 921.4 hPa | - | - | - | - |
| 1778244303 | 9.44° C | 65% | 921.5 hPa | - | - | - | - |
* Rain since midnight (hover to see other rain measurements)
** Current wind speed in m/s (hover to see current wind gust speed)